sensor_id;sensor_type;location;lat;lon;timestamp;P1;durP1;ratioP1;P2;durP2;ratioP2
57249;SDS011;43102;52.014;-0.680;2023-03-18T00:00:01;16.40;;;9.90;;
57249;SDS011;43102;52.014;-0.680;2023-03-18T00:01:03;16.40;;;9.90;;
57249;SDS011;43102;52.014;-0.680;2023-03-18T00:02:01;16.40;;;9.90;;
57249;SDS011;43102;52.014;-0.680;2023-03-18T00:03:01;16.40;;;9.90;;
57249;SDS011;43102;52.014;-0.680;2023-03-18T00:04:01;16.40;;;9.90;;
57249;SDS011;43102;52.014;-0.680;2023-03-18T00:05:01;16.40;;;9.90;;
57249;SDS011;43102;52.014;-0.680;2023-03-18T00:06:03;16.40;;;9.90;;
57249;SDS011;43102;52.014;-0.680;2023-03-18T00:07:01;16.40;;;9.90;;
57249;SDS011;43102;52.014;-0.680;2023-03-18T00:08:01;16.40;;;9.90;;
57249;SDS011;43102;52.014;-0.680;2023-03-18T00:09:01;16.40;;;9.90;;
57249;SDS011;43102;52.014;-0.680;2023-03-18T00:10:01;16.40;;;9.90;;
57249;SDS011;43102;52.014;-0.680;2023-03-18T00:11:01;16.40;;;9.90;;
57249;SDS011;43102;52.014;-0.680;2023-03-18T00:12:00;16.40;;;9.90;;
57249;SDS011;43102;52.014;-0.680;2023-03-18T00:13:03;16.40;;;9.90;;
57249;SDS011;43102;52.014;-0.680;2023-03-18T00:14:00;16.40;;;9.90;;
57249;SDS011;43102;52.014;-0.680;2023-03-18T00:15:01;16.40;;;9.90;;
57249;SDS011;43102;52.014;-0.680;2023-03-18T00:16:01;16.40;;;9.90;;
57249;SDS011;43102;52.014;-0.680;2023-03-18T00:17:01;16.40;;;9.90;;
57249;SDS011;43102;52.014;-0.680;2023-03-18T00:18:00;16.40;;;9.90;;
57249;SDS011;43102;52.014;-0.680;2023-03-18T00:19:01;16.40;;;9.90;;
57249;SDS011;43102;52.014;-0.680;2023-03-18T00:20:05;16.40;;;9.90;;
57249;SDS011;43102;52.014;-0.680;2023-03-18T00:21:01;16.40;;;9.90;;
57249;SDS011;43102;52.014;-0.680;2023-03-18T00:22:00;16.40;;;9.90;;
57249;SDS011;43102;52.014;-0.680;2023-03-18T00:23:00;16.40;;;9.90;;
57249;SDS011;43102;52.014;-0.680;2023-03-18T00:24:01;16.40;;;9.90;;
57249;SDS011;43102;52.014;-0.680;2023-03-18T00:25:02;16.40;;;9.90;;
57249;SDS011;43102;52.014;-0.680;2023-03-18T00:26:01;16.40;;;9.90;;
57249;SDS011;43102;52.014;-0.680;2023-03-18T00:27:01;17.60;;;11.00;;
57249;SDS011;43102;52.014;-0.680;2023-03-18T00:28:01;17.60;;;11.00;;
57249;SDS011;43102;52.014;-0.680;2023-03-18T00:29:00;17.60;;;11.00;;
57249;SDS011;43102;52.014;-0.680;2023-03-18T00:30:02;17.60;;;11.00;;
57249;SDS011;43102;52.014;-0.680;2023-03-18T00:31:03;17.60;;;11.00;;
57249;SDS011;43102;52.014;-0.680;2023-03-18T00:32:00;17.60;;;11.00;;
57249;SDS011;43102;52.014;-0.680;2023-03-18T00:33:00;17.60;;;11.00;;
57249;SDS011;43102;52.014;-0.680;2023-03-18T00:34:01;17.60;;;11.00;;
57249;SDS011;43102;52.014;-0.680;2023-03-18T00:35:01;17.60;;;11.00;;
57249;SDS011;43102;52.014;-0.680;2023-03-18T00:36:02;17.60;;;11.00;;
57249;SDS011;43102;52.014;-0.680;2023-03-18T00:37:00;17.60;;;11.00;;
57249;SDS011;43102;52.014;-0.680;2023-03-18T00:38:03;17.60;;;11.00;;
57249;SDS011;43102;52.014;-0.680;2023-03-18T00:39:02;17.60;;;11.00;;
57249;SDS011;43102;52.014;-0.680;2023-03-18T00:40:06;17.60;;;11.00;;
57249;SDS011;43102;52.014;-0.680;2023-03-18T00:41:10;17.60;;;11.00;;
57249;SDS011;43102;52.014;-0.680;2023-03-18T00:42:09;17.60;;;11.00;;
57249;SDS011;43102;52.014;-0.680;2023-03-18T00:43:07;17.60;;;11.00;;
57249;SDS011;43102;52.014;-0.680;2023-03-18T00:44:01;17.60;;;11.00;;
57249;SDS011;43102;52.014;-0.680;2023-03-18T00:45:03;17.60;;;11.00;;
57249;SDS011;43102;52.014;-0.680;2023-03-18T00:46:00;17.60;;;11.00;;
57249;SDS011;43102;52.014;-0.680;2023-03-18T00:47:00;17.60;;;11.00;;
57249;SDS011;43102;52.014;-0.680;2023-03-18T00:48:00;17.60;;;11.00;;
57249;SDS011;43102;52.014;-0.680;2023-03-18T00:49:02;17.60;;;11.00;;
57249;SDS011;43102;52.014;-0.680;2023-03-18T00:50:00;17.60;;;11.00;;
57249;SDS011;43102;52.014;-0.680;2023-03-18T00:51:00;17.60;;;11.00;;
57249;SDS011;43102;52.014;-0.680;2023-03-18T00:52:00;17.60;;;11.00;;
57249;SDS011;43102;52.014;-0.680;2023-03-18T00:53:00;17.60;;;11.00;;
57249;SDS011;43102;52.014;-0.680;2023-03-18T00:54:04;17.60;;;11.00;;
57249;SDS011;43102;52.014;-0.680;2023-03-18T00:55:00;17.60;;;11.00;;
57249;SDS011;43102;52.014;-0.680;2023-03-18T00:56:00;17.60;;;11.00;;
57249;SDS011;43102;52.014;-0.680;2023-03-18T00:57:00;16.00;;;10.40;;
57249;SDS011;43102;52.014;-0.680;2023-03-18T00:58:02;16.00;;;10.40;;
57249;SDS011;43102;52.014;-0.680;2023-03-18T00:59:01;16.00;;;10.40;;
57249;SDS011;43102;52.014;-0.680;2023-03-18T01:00:02;16.00;;;10.40;;
57249;SDS011;43102;52.014;-0.680;2023-03-18T01:01:00;16.00;;;10.40;;
57249;SDS011;43102;52.014;-0.680;2023-03-18T01:02:00;16.00;;;10.40;;
57249;SDS011;43102;52.014;-0.680;2023-03-18T01:03:00;16.00;;;10.40;;
57249;SDS011;43102;52.014;-0.680;2023-03-18T01:04:00;16.00;;;10.40;;
57249;SDS011;43102;52.014;-0.680;2023-03-18T01:05:01;16.00;;;10.40;;
57249;SDS011;43102;52.014;-0.680;2023-03-18T01:06:03;16.00;;;10.40;;
57249;SDS011;43102;52.014;-0.680;2023-03-18T01:07:01;16.00;;;10.40;;
57249;SDS011;43102;52.014;-0.680;2023-03-18T01:08:02;16.00;;;10.40;;
57249;SDS011;43102;52.014;-0.680;2023-03-18T01:09:02;16.00;;;10.40;;
57249;SDS011;43102;52.014;-0.680;2023-03-18T01:10:01;16.00;;;10.40;;
57249;SDS011;43102;52.014;-0.680;2023-03-18T01:11:02;16.00;;;10.40;;
57249;SDS011;43102;52.014;-0.680;2023-03-18T01:12:00;16.00;;;10.40;;
57249;SDS011;43102;52.014;-0.680;2023-03-18T01:13:00;16.00;;;10.40;;
57249;SDS011;43102;52.014;-0.680;2023-03-18T01:14:01;16.00;;;10.40;;
57249;SDS011;43102;52.014;-0.680;2023-03-18T01:15:00;16.00;;;10.40;;
57249;SDS011;43102;52.014;-0.680;2023-03-18T01:16:02;16.00;;;10.40;;
57249;SDS011;43102;52.014;-0.680;2023-03-18T01:17:01;16.00;;;10.40;;
57249;SDS011;43102;52.014;-0.680;2023-03-18T01:18:00;16.00;;;10.40;;
57249;SDS011;43102;52.014;-0.680;2023-03-18T01:19:00;16.00;;;10.40;;
57249;SDS011;43102;52.014;-0.680;2023-03-18T01:20:02;16.00;;;10.40;;
57249;SDS011;43102;52.014;-0.680;2023-03-18T01:21:01;16.00;;;10.40;;
57249;SDS011;43102;52.014;-0.680;2023-03-18T01:22:02;16.00;;;10.40;;
57249;SDS011;43102;52.014;-0.680;2023-03-18T01:23:01;16.00;;;10.40;;
57249;SDS011;43102;52.014;-0.680;2023-03-18T01:24:01;16.00;;;10.40;;
57249;SDS011;43102;52.014;-0.680;2023-03-18T01:25:01;16.00;;;10.40;;
57249;SDS011;43102;52.014;-0.680;2023-03-18T01:26:01;16.00;;;10.40;;
57249;SDS011;43102;52.014;-0.680;2023-03-18T01:27:00;14.10;;;11.30;;
57249;SDS011;43102;52.014;-0.680;2023-03-18T01:28:00;14.10;;;11.30;;
57249;SDS011;43102;52.014;-0.680;2023-03-18T01:29:01;14.10;;;11.30;;
57249;SDS011;43102;52.014;-0.680;2023-03-18T01:30:01;14.10;;;11.30;;
57249;SDS011;43102;52.014;-0.680;2023-03-18T01:31:01;14.10;;;11.30;;
57249;SDS011;43102;52.014;-0.680;2023-03-18T01:32:01;14.10;;;11.30;;
57249;SDS011;43102;52.014;-0.680;2023-03-18T01:33:03;14.10;;;11.30;;
57249;SDS011;43102;52.014;-0.680;2023-03-18T01:34:01;14.10;;;11.30;;
57249;SDS011;43102;52.014;-0.680;2023-03-18T01:35:01;14.10;;;11.30;;
57249;SDS011;43102;52.014;-0.680;2023-03-18T01:36:02;14.10;;;11.30;;
57249;SDS011;43102;52.014;-0.680;2023-03-18T01:37:01;14.10;;;11.30;;
57249;SDS011;43102;52.014;-0.680;2023-03-18T01:38:02;14.10;;;11.30;;
57249;SDS011;43102;52.014;-0.680;2023-03-18T01:39:00;14.10;;;11.30;;
57249;SDS011;43102;52.014;-0.680;2023-03-18T01:40:00;14.10;;;11.30;;
57249;SDS011;43102;52.014;-0.680;2023-03-18T01:41:02;14.10;;;11.30;;
57249;SDS011;43102;52.014;-0.680;2023-03-18T01:42:00;14.10;;;11.30;;
57249;SDS011;43102;52.014;-0.680;2023-03-18T01:43:13;14.10;;;11.30;;
57249;SDS011;43102;52.014;-0.680;2023-03-18T01:44:01;14.10;;;11.30;;
57249;SDS011;43102;52.014;-0.680;2023-03-18T01:45:11;14.10;;;11.30;;
57249;SDS011;43102;52.014;-0.680;2023-03-18T01:46:30;14.10;;;11.30;;
57249;SDS011;43102;52.014;-0.680;2023-03-18T01:47:01;14.10;;;11.30;;
57249;SDS011;43102;52.014;-0.680;2023-03-18T01:48:00;14.10;;;11.30;;
57249;SDS011;43102;52.014;-0.680;2023-03-18T01:49:04;14.10;;;11.30;;
57249;SDS011;43102;52.014;-0.680;2023-03-18T01:50:02;14.10;;;11.30;;
57249;SDS011;43102;52.014;-0.680;2023-03-18T01:51:05;14.10;;;11.30;;
57249;SDS011;43102;52.014;-0.680;2023-03-18T01:52:04;14.10;;;11.30;;
57249;SDS011;43102;52.014;-0.680;2023-03-18T01:53:09;14.10;;;11.30;;
57249;SDS011;43102;52.014;-0.680;2023-03-18T01:54:03;14.10;;;11.30;;
57249;SDS011;43102;52.014;-0.680;2023-03-18T01:55:04;14.10;;;11.30;;
57249;SDS011;43102;52.014;-0.680;2023-03-18T01:56:02;14.10;;;11.30;;
57249;SDS011;43102;52.014;-0.680;2023-03-18T01:57:01;11.70;;;7.30;;
57249;SDS011;43102;52.014;-0.680;2023-03-18T01:58:03;11.70;;;7.30;;
57249;SDS011;43102;52.014;-0.680;2023-03-18T01:59:00;11.70;;;7.30;;
57249;SDS011;43102;52.014;-0.680;2023-03-18T02:00:03;11.70;;;7.30;;
57249;SDS011;43102;52.014;-0.680;2023-03-18T02:01:05;11.70;;;7.30;;
57249;SDS011;43102;52.014;-0.680;2023-03-18T02:02:04;11.70;;;7.30;;
57249;SDS011;43102;52.014;-0.680;2023-03-18T02:03:00;11.70;;;7.30;;
57249;SDS011;43102;52.014;-0.680;2023-03-18T02:04:05;11.70;;;7.30;;
57249;SDS011;43102;52.014;-0.680;2023-03-18T02:05:04;11.70;;;7.30;;
57249;SDS011;43102;52.014;-0.680;2023-03-18T02:06:02;11.70;;;7.30;;
57249;SDS011;43102;52.014;-0.680;2023-03-18T02:07:01;11.70;;;7.30;;
57249;SDS011;43102;52.014;-0.680;2023-03-18T02:08:00;11.70;;;7.30;;
57249;SDS011;43102;52.014;-0.680;2023-03-18T02:09:02;11.70;;;7.30;;
57249;SDS011;43102;52.014;-0.680;2023-03-18T02:10:05;11.70;;;7.30;;
57249;SDS011;43102;52.014;-0.680;2023-03-18T02:11:01;11.70;;;7.30;;
57249;SDS011;43102;52.014;-0.680;2023-03-18T02:12:01;11.70;;;7.30;;
57249;SDS011;43102;52.014;-0.680;2023-03-18T02:13:05;11.70;;;7.30;;
57249;SDS011;43102;52.014;-0.680;2023-03-18T02:14:03;11.70;;;7.30;;
57249;SDS011;43102;52.014;-0.680;2023-03-18T02:15:04;11.70;;;7.30;;
57249;SDS011;43102;52.014;-0.680;2023-03-18T02:16:14;11.70;;;7.30;;
57249;SDS011;43102;52.014;-0.680;2023-03-18T02:17:05;11.70;;;7.30;;
57249;SDS011;43102;52.014;-0.680;2023-03-18T02:18:05;11.70;;;7.30;;
57249;SDS011;43102;52.014;-0.680;2023-03-18T02:19:07;11.70;;;7.30;;
57249;SDS011;43102;52.014;-0.680;2023-03-18T02:23:47;11.70;;;7.30;;
57249;SDS011;43102;52.014;-0.680;2023-03-18T02:24:14;11.70;;;7.30;;
57249;SDS011;43102;52.014;-0.680;2023-03-18T02:26:10;11.70;;;7.30;;
57249;SDS011;43102;52.014;-0.680;2023-03-18T02:28:03;11.20;;;7.40;;
57249;SDS011;43102;52.014;-0.680;2023-03-18T02:29:03;11.20;;;7.40;;
57249;SDS011;43102;52.014;-0.680;2023-03-18T02:30:06;11.20;;;7.40;;
57249;SDS011;43102;52.014;-0.680;2023-03-18T02:31:03;11.20;;;7.40;;
57249;SDS011;43102;52.014;-0.680;2023-03-18T02:32:03;11.20;;;7.40;;
57249;SDS011;43102;52.014;-0.680;2023-03-18T02:33:01;11.20;;;7.40;;
57249;SDS011;43102;52.014;-0.680;2023-03-18T02:34:00;11.20;;;7.40;;
57249;SDS011;43102;52.014;-0.680;2023-03-18T02:35:04;11.20;;;7.40;;
57249;SDS011;43102;52.014;-0.680;2023-03-18T02:36:06;11.20;;;7.40;;
57249;SDS011;43102;52.014;-0.680;2023-03-18T02:37:01;11.20;;;7.40;;
57249;SDS011;43102;52.014;-0.680;2023-03-18T02:38:01;11.20;;;7.40;;
57249;SDS011;43102;52.014;-0.680;2023-03-18T02:39:01;11.20;;;7.40;;
57249;SDS011;43102;52.014;-0.680;2023-03-18T02:40:11;11.20;;;7.40;;
57249;SDS011;43102;52.014;-0.680;2023-03-18T02:41:00;11.20;;;7.40;;
57249;SDS011;43102;52.014;-0.680;2023-03-18T02:42:01;11.20;;;7.40;;
57249;SDS011;43102;52.014;-0.680;2023-03-18T02:44:01;11.20;;;7.40;;
57249;SDS011;43102;52.014;-0.680;2023-03-18T02:45:00;11.20;;;7.40;;
57249;SDS011;43102;52.014;-0.680;2023-03-18T02:46:17;11.20;;;7.40;;
57249;SDS011;43102;52.014;-0.680;2023-03-18T02:47:04;11.20;;;7.40;;
57249;SDS011;43102;52.014;-0.680;2023-03-18T02:48:03;11.20;;;7.40;;
57249;SDS011;43102;52.014;-0.680;2023-03-18T02:49:02;11.20;;;7.40;;
57249;SDS011;43102;52.014;-0.680;2023-03-18T02:50:01;11.20;;;7.40;;
57249;SDS011;43102;52.014;-0.680;2023-03-18T02:51:01;11.20;;;7.40;;
57249;SDS011;43102;52.014;-0.680;2023-03-18T02:52:00;11.20;;;7.40;;
57249;SDS011;43102;52.014;-0.680;2023-03-18T02:53:01;11.20;;;7.40;;
57249;SDS011;43102;52.014;-0.680;2023-03-18T02:54:12;11.20;;;7.40;;
57249;SDS011;43102;52.014;-0.680;2023-03-18T02:55:00;11.20;;;7.40;;
57249;SDS011;43102;52.014;-0.680;2023-03-18T02:56:01;11.20;;;7.40;;
57249;SDS011;43102;52.014;-0.680;2023-03-18T02:57:01;11.70;;;8.20;;
57249;SDS011;43102;52.014;-0.680;2023-03-18T02:58:01;11.70;;;8.20;;
57249;SDS011;43102;52.014;-0.680;2023-03-18T02:59:00;11.70;;;8.20;;
57249;SDS011;43102;52.014;-0.680;2023-03-18T03:00:00;11.70;;;8.20;;
57249;SDS011;43102;52.014;-0.680;2023-03-18T03:01:01;11.70;;;8.20;;
57249;SDS011;43102;52.014;-0.680;2023-03-18T03:02:01;11.70;;;8.20;;
57249;SDS011;43102;52.014;-0.680;2023-03-18T03:03:01;11.70;;;8.20;;
57249;SDS011;43102;52.014;-0.680;2023-03-18T03:04:01;11.70;;;8.20;;
57249;SDS011;43102;52.014;-0.680;2023-03-18T03:05:01;11.70;;;8.20;;
57249;SDS011;43102;52.014;-0.680;2023-03-18T03:06:02;11.70;;;8.20;;
57249;SDS011;43102;52.014;-0.680;2023-03-18T03:07:01;11.70;;;8.20;;
57249;SDS011;43102;52.014;-0.680;2023-03-18T03:08:01;11.70;;;8.20;;
57249;SDS011;43102;52.014;-0.680;2023-03-18T03:09:01;11.70;;;8.20;;
57249;SDS011;43102;52.014;-0.680;2023-03-18T03:10:02;11.70;;;8.20;;
57249;SDS011;43102;52.014;-0.680;2023-03-18T03:11:01;11.70;;;8.20;;
57249;SDS011;43102;52.014;-0.680;2023-03-18T03:12:01;11.70;;;8.20;;
57249;SDS011;43102;52.014;-0.680;2023-03-18T03:13:01;11.70;;;8.20;;
57249;SDS011;43102;52.014;-0.680;2023-03-18T03:14:01;11.70;;;8.20;;
57249;SDS011;43102;52.014;-0.680;2023-03-18T03:15:00;11.70;;;8.20;;
57249;SDS011;43102;52.014;-0.680;2023-03-18T03:16:01;11.70;;;8.20;;
57249;SDS011;43102;52.014;-0.680;2023-03-18T03:17:00;11.70;;;8.20;;
57249;SDS011;43102;52.014;-0.680;2023-03-18T03:18:01;11.70;;;8.20;;
57249;SDS011;43102;52.014;-0.680;2023-03-18T03:19:00;11.70;;;8.20;;
57249;SDS011;43102;52.014;-0.680;2023-03-18T03:20:00;11.70;;;8.20;;
57249;SDS011;43102;52.014;-0.680;2023-03-18T03:21:00;11.70;;;8.20;;
57249;SDS011;43102;52.014;-0.680;2023-03-18T03:22:00;11.70;;;8.20;;
57249;SDS011;43102;52.014;-0.680;2023-03-18T03:23:02;11.70;;;8.20;;
57249;SDS011;43102;52.014;-0.680;2023-03-18T03:24:03;11.70;;;8.20;;
57249;SDS011;43102;52.014;-0.680;2023-03-18T03:25:00;11.70;;;8.20;;
57249;SDS011;43102;52.014;-0.680;2023-03-18T03:26:01;11.70;;;8.20;;
57249;SDS011;43102;52.014;-0.680;2023-03-18T03:27:00;14.50;;;9.00;;
57249;SDS011;43102;52.014;-0.680;2023-03-18T03:28:02;14.50;;;9.00;;
57249;SDS011;43102;52.014;-0.680;2023-03-18T03:29:03;14.50;;;9.00;;
57249;SDS011;43102;52.014;-0.680;2023-03-18T03:30:01;14.50;;;9.00;;
57249;SDS011;43102;52.014;-0.680;2023-03-18T03:31:01;14.50;;;9.00;;
57249;SDS011;43102;52.014;-0.680;2023-03-18T03:32:01;14.50;;;9.00;;
57249;SDS011;43102;52.014;-0.680;2023-03-18T03:33:01;14.50;;;9.00;;
57249;SDS011;43102;52.014;-0.680;2023-03-18T03:34:01;14.50;;;9.00;;
57249;SDS011;43102;52.014;-0.680;2023-03-18T03:35:00;14.50;;;9.00;;
57249;SDS011;43102;52.014;-0.680;2023-03-18T03:36:00;14.50;;;9.00;;
57249;SDS011;43102;52.014;-0.680;2023-03-18T03:37:00;14.50;;;9.00;;
57249;SDS011;43102;52.014;-0.680;2023-03-18T03:38:01;14.50;;;9.00;;
57249;SDS011;43102;52.014;-0.680;2023-03-18T03:39:01;14.50;;;9.00;;
57249;SDS011;43102;52.014;-0.680;2023-03-18T03:40:00;14.50;;;9.00;;
57249;SDS011;43102;52.014;-0.680;2023-03-18T03:41:01;14.50;;;9.00;;
57249;SDS011;43102;52.014;-0.680;2023-03-18T03:42:00;14.50;;;9.00;;
57249;SDS011;43102;52.014;-0.680;2023-03-18T03:43:01;14.50;;;9.00;;
57249;SDS011;43102;52.014;-0.680;2023-03-18T03:44:00;14.50;;;9.00;;
57249;SDS011;43102;52.014;-0.680;2023-03-18T03:45:01;14.50;;;9.00;;
57249;SDS011;43102;52.014;-0.680;2023-03-18T03:46:00;14.50;;;9.00;;
57249;SDS011;43102;52.014;-0.680;2023-03-18T03:47:01;14.50;;;9.00;;
57249;SDS011;43102;52.014;-0.680;2023-03-18T03:48:01;14.50;;;9.00;;
57249;SDS011;43102;52.014;-0.680;2023-03-18T03:49:00;14.50;;;9.00;;
57249;SDS011;43102;52.014;-0.680;2023-03-18T03:50:01;14.50;;;9.00;;
57249;SDS011;43102;52.014;-0.680;2023-03-18T03:51:01;14.50;;;9.00;;
57249;SDS011;43102;52.014;-0.680;2023-03-18T03:52:00;14.50;;;9.00;;
57249;SDS011;43102;52.014;-0.680;2023-03-18T03:53:01;14.50;;;9.00;;
57249;SDS011;43102;52.014;-0.680;2023-03-18T03:54:00;14.50;;;9.00;;
57249;SDS011;43102;52.014;-0.680;2023-03-18T03:55:01;14.50;;;9.00;;
57249;SDS011;43102;52.014;-0.680;2023-03-18T03:56:00;14.50;;;9.00;;
57249;SDS011;43102;52.014;-0.680;2023-03-18T03:57:00;11.70;;;8.30;;
57249;SDS011;43102;52.014;-0.680;2023-03-18T03:58:01;11.70;;;8.30;;
57249;SDS011;43102;52.014;-0.680;2023-03-18T03:59:01;11.70;;;8.30;;
57249;SDS011;43102;52.014;-0.680;2023-03-18T04:00:01;11.70;;;8.30;;
57249;SDS011;43102;52.014;-0.680;2023-03-18T04:01:00;11.70;;;8.30;;
57249;SDS011;43102;52.014;-0.680;2023-03-18T04:02:00;11.70;;;8.30;;
57249;SDS011;43102;52.014;-0.680;2023-03-18T04:03:00;11.70;;;8.30;;
57249;SDS011;43102;52.014;-0.680;2023-03-18T04:04:02;11.70;;;8.30;;
57249;SDS011;43102;52.014;-0.680;2023-03-18T04:05:01;11.70;;;8.30;;
57249;SDS011;43102;52.014;-0.680;2023-03-18T04:06:00;11.70;;;8.30;;
57249;SDS011;43102;52.014;-0.680;2023-03-18T04:07:02;11.70;;;8.30;;
57249;SDS011;43102;52.014;-0.680;2023-03-18T04:08:01;11.70;;;8.30;;
57249;SDS011;43102;52.014;-0.680;2023-03-18T04:09:00;11.70;;;8.30;;
57249;SDS011;43102;52.014;-0.680;2023-03-18T04:10:01;11.70;;;8.30;;
57249;SDS011;43102;52.014;-0.680;2023-03-18T04:11:03;11.70;;;8.30;;
57249;SDS011;43102;52.014;-0.680;2023-03-18T04:12:01;11.70;;;8.30;;
57249;SDS011;43102;52.014;-0.680;2023-03-18T04:13:01;11.70;;;8.30;;
57249;SDS011;43102;52.014;-0.680;2023-03-18T04:14:00;11.70;;;8.30;;
57249;SDS011;43102;52.014;-0.680;2023-03-18T04:15:00;11.70;;;8.30;;
57249;SDS011;43102;52.014;-0.680;2023-03-18T04:16:00;11.70;;;8.30;;
57249;SDS011;43102;52.014;-0.680;2023-03-18T04:17:01;11.70;;;8.30;;
57249;SDS011;43102;52.014;-0.680;2023-03-18T04:18:05;11.70;;;8.30;;
57249;SDS011;43102;52.014;-0.680;2023-03-18T04:19:00;11.70;;;8.30;;
57249;SDS011;43102;52.014;-0.680;2023-03-18T04:20:01;11.70;;;8.30;;
57249;SDS011;43102;52.014;-0.680;2023-03-18T04:21:00;11.70;;;8.30;;
57249;SDS011;43102;52.014;-0.680;2023-03-18T04:22:01;11.70;;;8.30;;
57249;SDS011;43102;52.014;-0.680;2023-03-18T04:23:01;11.70;;;8.30;;
57249;SDS011;43102;52.014;-0.680;2023-03-18T04:24:03;11.70;;;8.30;;
57249;SDS011;43102;52.014;-0.680;2023-03-18T04:25:01;11.70;;;8.30;;
57249;SDS011;43102;52.014;-0.680;2023-03-18T04:26:00;11.70;;;8.30;;
57249;SDS011;43102;52.014;-0.680;2023-03-18T04:27:00;11.20;;;8.00;;
57249;SDS011;43102;52.014;-0.680;2023-03-18T04:28:01;11.20;;;8.00;;
57249;SDS011;43102;52.014;-0.680;2023-03-18T04:29:00;11.20;;;8.00;;
57249;SDS011;43102;52.014;-0.680;2023-03-18T04:30:01;11.20;;;8.00;;
57249;SDS011;43102;52.014;-0.680;2023-03-18T04:31:00;11.20;;;8.00;;
57249;SDS011;43102;52.014;-0.680;2023-03-18T04:32:00;11.20;;;8.00;;
57249;SDS011;43102;52.014;-0.680;2023-03-18T04:33:03;11.20;;;8.00;;
57249;SDS011;43102;52.014;-0.680;2023-03-18T04:34:00;11.20;;;8.00;;
57249;SDS011;43102;52.014;-0.680;2023-03-18T04:35:00;11.20;;;8.00;;
57249;SDS011;43102;52.014;-0.680;2023-03-18T04:36:00;11.20;;;8.00;;
57249;SDS011;43102;52.014;-0.680;2023-03-18T04:37:01;11.20;;;8.00;;
57249;SDS011;43102;52.014;-0.680;2023-03-18T04:38:00;11.20;;;8.00;;
57249;SDS011;43102;52.014;-0.680;2023-03-18T04:39:01;11.20;;;8.00;;
57249;SDS011;43102;52.014;-0.680;2023-03-18T04:40:01;11.20;;;8.00;;
57249;SDS011;43102;52.014;-0.680;2023-03-18T04:41:00;11.20;;;8.00;;
57249;SDS011;43102;52.014;-0.680;2023-03-18T04:42:01;11.20;;;8.00;;
57249;SDS011;43102;52.014;-0.680;2023-03-18T04:43:01;11.20;;;8.00;;
57249;SDS011;43102;52.014;-0.680;2023-03-18T04:44:01;11.20;;;8.00;;
57249;SDS011;43102;52.014;-0.680;2023-03-18T04:45:01;11.20;;;8.00;;
57249;SDS011;43102;52.014;-0.680;2023-03-18T04:46:00;11.20;;;8.00;;
57249;SDS011;43102;52.014;-0.680;2023-03-18T04:47:00;11.20;;;8.00;;
57249;SDS011;43102;52.014;-0.680;2023-03-18T04:48:00;11.20;;;8.00;;
57249;SDS011;43102;52.014;-0.680;2023-03-18T04:49:01;11.20;;;8.00;;
57249;SDS011;43102;52.014;-0.680;2023-03-18T04:50:01;11.20;;;8.00;;
57249;SDS011;43102;52.014;-0.680;2023-03-18T04:51:01;11.20;;;8.00;;
57249;SDS011;43102;52.014;-0.680;2023-03-18T04:52:01;11.20;;;8.00;;
57249;SDS011;43102;52.014;-0.680;2023-03-18T04:53:00;11.20;;;8.00;;
57249;SDS011;43102;52.014;-0.680;2023-03-18T04:54:01;11.20;;;8.00;;
57249;SDS011;43102;52.014;-0.680;2023-03-18T04:55:01;11.20;;;8.00;;
57249;SDS011;43102;52.014;-0.680;2023-03-18T04:56:00;11.20;;;8.00;;
57249;SDS011;43102;52.014;-0.680;2023-03-18T04:57:01;14.90;;;7.60;;
57249;SDS011;43102;52.014;-0.680;2023-03-18T04:58:00;14.90;;;7.60;;
57249;SDS011;43102;52.014;-0.680;2023-03-18T04:59:00;14.90;;;7.60;;
57249;SDS011;43102;52.014;-0.680;2023-03-18T05:00:01;14.90;;;7.60;;
57249;SDS011;43102;52.014;-0.680;2023-03-18T05:01:01;14.90;;;7.60;;
57249;SDS011;43102;52.014;-0.680;2023-03-18T05:02:00;14.90;;;7.60;;
57249;SDS011;43102;52.014;-0.680;2023-03-18T05:03:01;14.90;;;7.60;;
57249;SDS011;43102;52.014;-0.680;2023-03-18T05:04:00;14.90;;;7.60;;
57249;SDS011;43102;52.014;-0.680;2023-03-18T05:05:00;14.90;;;7.60;;
57249;SDS011;43102;52.014;-0.680;2023-03-18T05:06:01;14.90;;;7.60;;
57249;SDS011;43102;52.014;-0.680;2023-03-18T05:07:00;14.90;;;7.60;;
57249;SDS011;43102;52.014;-0.680;2023-03-18T05:08:01;14.90;;;7.60;;
57249;SDS011;43102;52.014;-0.680;2023-03-18T05:09:00;14.90;;;7.60;;
57249;SDS011;43102;52.014;-0.680;2023-03-18T05:10:01;14.90;;;7.60;;
57249;SDS011;43102;52.014;-0.680;2023-03-18T05:11:00;14.90;;;7.60;;
57249;SDS011;43102;52.014;-0.680;2023-03-18T05:12:00;14.90;;;7.60;;
57249;SDS011;43102;52.014;-0.680;2023-03-18T05:13:00;14.90;;;7.60;;
57249;SDS011;43102;52.014;-0.680;2023-03-18T05:14:00;14.90;;;7.60;;
57249;SDS011;43102;52.014;-0.680;2023-03-18T05:15:00;14.90;;;7.60;;
57249;SDS011;43102;52.014;-0.680;2023-03-18T05:16:01;14.90;;;7.60;;
57249;SDS011;43102;52.014;-0.680;2023-03-18T05:17:01;14.90;;;7.60;;
57249;SDS011;43102;52.014;-0.680;2023-03-18T05:18:01;14.90;;;7.60;;
57249;SDS011;43102;52.014;-0.680;2023-03-18T05:19:01;14.90;;;7.60;;
57249;SDS011;43102;52.014;-0.680;2023-03-18T05:20:00;14.90;;;7.60;;
57249;SDS011;43102;52.014;-0.680;2023-03-18T05:21:01;14.90;;;7.60;;
57249;SDS011;43102;52.014;-0.680;2023-03-18T05:22:00;14.90;;;7.60;;
57249;SDS011;43102;52.014;-0.680;2023-03-18T05:23:00;14.90;;;7.60;;
57249;SDS011;43102;52.014;-0.680;2023-03-18T05:24:00;14.90;;;7.60;;
57249;SDS011;43102;52.014;-0.680;2023-03-18T05:25:01;14.90;;;7.60;;
57249;SDS011;43102;52.014;-0.680;2023-03-18T05:26:01;14.90;;;7.60;;
57249;SDS011;43102;52.014;-0.680;2023-03-18T05:27:01;13.90;;;7.00;;
57249;SDS011;43102;52.014;-0.680;2023-03-18T05:28:01;13.90;;;7.00;;
57249;SDS011;43102;52.014;-0.680;2023-03-18T05:29:00;13.90;;;7.00;;
57249;SDS011;43102;52.014;-0.680;2023-03-18T05:30:02;13.90;;;7.00;;
57249;SDS011;43102;52.014;-0.680;2023-03-18T05:31:01;13.90;;;7.00;;
57249;SDS011;43102;52.014;-0.680;2023-03-18T05:32:01;13.90;;;7.00;;
57249;SDS011;43102;52.014;-0.680;2023-03-18T05:33:00;13.90;;;7.00;;
57249;SDS011;43102;52.014;-0.680;2023-03-18T05:34:01;13.90;;;7.00;;
57249;SDS011;43102;52.014;-0.680;2023-03-18T05:35:00;13.90;;;7.00;;
57249;SDS011;43102;52.014;-0.680;2023-03-18T05:36:00;13.90;;;7.00;;
57249;SDS011;43102;52.014;-0.680;2023-03-18T05:37:01;13.90;;;7.00;;
57249;SDS011;43102;52.014;-0.680;2023-03-18T05:38:00;13.90;;;7.00;;
57249;SDS011;43102;52.014;-0.680;2023-03-18T05:39:00;13.90;;;7.00;;
57249;SDS011;43102;52.014;-0.680;2023-03-18T05:40:00;13.90;;;7.00;;
57249;SDS011;43102;52.014;-0.680;2023-03-18T05:41:00;13.90;;;7.00;;
57249;SDS011;43102;52.014;-0.680;2023-03-18T05:42:01;13.90;;;7.00;;
57249;SDS011;43102;52.014;-0.680;2023-03-18T05:43:01;13.90;;;7.00;;
57249;SDS011;43102;52.014;-0.680;2023-03-18T05:44:00;13.90;;;7.00;;
57249;SDS011;43102;52.014;-0.680;2023-03-18T05:45:01;13.90;;;7.00;;
57249;SDS011;43102;52.014;-0.680;2023-03-18T05:46:00;13.90;;;7.00;;
57249;SDS011;43102;52.014;-0.680;2023-03-18T05:47:01;13.90;;;7.00;;
57249;SDS011;43102;52.014;-0.680;2023-03-18T05:48:00;13.90;;;7.00;;
57249;SDS011;43102;52.014;-0.680;2023-03-18T05:49:00;13.90;;;7.00;;
57249;SDS011;43102;52.014;-0.680;2023-03-18T05:50:02;13.90;;;7.00;;
57249;SDS011;43102;52.014;-0.680;2023-03-18T05:51:01;13.90;;;7.00;;
57249;SDS011;43102;52.014;-0.680;2023-03-18T05:52:02;13.90;;;7.00;;
57249;SDS011;43102;52.014;-0.680;2023-03-18T05:53:01;13.90;;;7.00;;
57249;SDS011;43102;52.014;-0.680;2023-03-18T05:54:00;13.90;;;7.00;;
57249;SDS011;43102;52.014;-0.680;2023-03-18T05:55:01;13.90;;;7.00;;